Time;durP1;ratioP1;P1;durP2;ratioP2;P2;SDS_P1;SDS_P2;PMS_P1;PMS_P2;Temp;Humidity;BMP_temperature;BMP_pressure;BME280_temperature;BME280_humidity;BME280_pressure;Samples;Min_cycle;Max_cycle;Signal;HPM_P1;HPM_P2
2023/08/28 00:02:33;;;;;;;3.10;1.48;;;15.40;99.90;;;;;;4756537;30;20039;-77
2023/08/28 00:05:10;;;;;;;4.43;1.60;;;15.40;99.90;;;;;;4758527;30;20038;-75
2023/08/28 00:07:44;;;;;;;4.45;1.70;;;15.30;99.90;;;;;;4759053;30;20044;-76
2023/08/28 00:10:39;;;;;;;3.50;1.75;;;15.30;99.90;;;;;;4775816;30;20144;-76
2023/08/28 00:13:26;;;;;;;3.90;1.45;;;15.30;99.90;;;;;;4809898;29;20035;-76
2023/08/28 00:19:22;;;;;;;4.35;1.48;;;15.30;99.90;;;;;;4798447;30;20112;-76
2023/08/28 00:22:09;;;;;;;2.42;1.48;;;15.20;99.90;;;;;;4806498;29;20049;-77
2023/08/28 00:24:55;;;;;;;2.78;1.67;;;15.20;99.90;;;;;;4848616;29;20125;-76
2023/08/28 00:27:28;;;;;;;4.32;1.50;;;15.10;99.90;;;;;;4822582;29;20105;-76
2023/08/28 00:30:40;;;;;;;2.28;1.58;;;15.20;99.90;;;;;;4833872;29;20114;-76
2023/08/28 06:10:52;;;;;;;5.68;3.15;;;15.00;99.90;;;;;;5814389;23;19922;-77
2023/08/28 06:21:26;;;;;;;4.63;2.67;;;15.10;99.90;;;;;;4850721;29;20094;-75
2023/08/28 06:32:58;;;;;;;;;;;;;;;;;;;;;
2023/08/28 06:49:26;;;;;;;;;;;;;;;;;;;;;
2023/08/28 06:52:15;;;;;;;7.85;4.38;;;15.80;99.90;;;;;;4657010;30;20280;-77
2023/08/28 06:59:07;;;;;;;5.15;3.55;;;16.00;99.90;;;;;;4689726;30;20263;-77
2023/08/28 07:08:59;;;;;;;8.93;3.78;;;16.10;99.90;;;;;;4665414;30;20113;-76
2023/08/28 07:12:12;;;;;;;6.70;4.05;;;16.10;99.90;;;;;;4689810;30;20323;-75
2023/08/28 07:15:41;;;;;;;;;;;16.10;99.90;;;;;;4690308;30;20065;-76
2023/08/28 07:18:51;;;;;;;7.28;3.85;;;16.20;99.90;;;;;;4724236;30;19917;-76
2023/08/28 07:21:31;;;;;;;6.10;3.97;;;16.20;99.90;;;;;;4759418;30;20052;-76
2023/08/28 07:27:31;;;;;;;5.75;3.63;;;16.20;99.90;;;;;;4760170;30;20124;-76
2023/08/28 07:30:04;;;;;;;4.95;3.58;;;16.20;99.90;;;;;;4759499;30;20064;-77
2023/08/28 07:32:35;;;;;;;5.25;3.53;;;16.20;99.90;;;;;;4740467;30;20121;-76
2023/08/28 07:35:08;;;;;;;6.25;3.90;;;16.30;99.90;;;;;;4760613;30;20296;-76
2023/08/28 07:37:34;;;;;;;4.95;3.15;;;16.30;99.90;;;;;;4760811;30;20135;-76
2023/08/28 07:40:01;;;;;;;7.70;3.67;;;16.30;99.90;;;;;;4730427;30;20115;-76
2023/08/28 07:42:30;;;;;;;4.83;2.60;;;16.30;99.90;;;;;;4774033;29;20113;-76
2023/08/28 07:44:56;;;;;;;7.00;2.88;;;16.30;99.90;;;;;;4797874;29;20136;-74
2023/08/28 07:47:22;;;;;;;6.63;2.97;;;16.30;99.90;;;;;;4813296;29;20031;-74
2023/08/28 07:49:48;;;;;;;4.57;2.78;;;16.30;99.90;;;;;;4813619;29;20344;-75
2023/08/28 07:52:14;;;;;;;5.13;2.55;;;16.40;99.90;;;;;;4857258;29;20052;-74
2023/08/28 07:54:40;;;;;;;7.32;2.45;;;16.60;99.90;;;;;;4872170;29;20294;-75
2023/08/28 07:57:06;;;;;;;3.92;2.00;;;16.80;99.90;;;;;;4888056;29;20036;-74
2023/08/28 07:59:32;;;;;;;5.03;2.20;;;17.10;99.90;;;;;;4888690;29;20060;-76
2023/08/28 08:01:58;;;;;;;5.82;2.47;;;17.30;99.90;;;;;;4887973;29;20044;-75
2023/08/28 08:04:27;;;;;;;4.72;1.92;;;17.40;99.90;;;;;;4888533;29;20073;-75
2023/08/28 08:06:52;;;;;;;3.05;2.10;;;17.40;99.90;;;;;;4865745;29;20212;-74
2023/08/28 08:09:18;;;;;;;6.57;2.45;;;17.40;99.90;;;;;;4870180;29;20093;-75
2023/08/28 08:11:44;;;;;;;5.47;2.40;;;17.40;99.90;;;;;;4877233;29;20116;-73
2023/08/28 08:14:10;;;;;;;3.75;2.22;;;17.40;99.90;;;;;;4888921;29;20033;-76
2023/08/28 08:16:36;;;;;;;3.15;2.00;;;17.40;99.90;;;;;;4888675;29;20032;-76
2023/08/28 08:19:02;;;;;;;4.00;2.22;;;17.40;99.90;;;;;;4888469;29;20037;-72
2023/08/28 08:21:31;;;;;;;3.50;1.52;;;17.50;99.90;;;;;;4888756;29;20234;-78
2023/08/28 08:23:57;;;;;;;3.78;1.65;;;17.50;99.90;;;;;;4888325;29;20108;-76
2023/08/28 08:26:22;;;;;;;3.17;1.67;;;17.70;99.90;;;;;;4872163;29;20078;-75
2023/08/28 08:28:48;;;;;;;4.80;1.70;;;17.70;99.90;;;;;;4888617;29;20040;-78
2023/08/28 08:31:14;;;;;;;4.05;1.85;;;17.80;99.90;;;;;;4887889;29;20048;-76
2023/08/28 08:33:40;;;;;;;2.42;1.35;;;17.90;99.90;;;;;;4872016;29;20207;-75
2023/08/28 08:36:06;;;;;;;3.35;1.55;;;18.00;99.90;;;;;;4890748;29;20112;-75
2023/08/28 08:38:38;;;;;;;5.20;1.75;;;18.10;99.90;;;;;;4874915;29;20148;-78
2023/08/28 08:41:06;;;;;;;2.95;1.30;;;18.00;99.90;;;;;;4859048;29;20091;-77
2023/08/28 08:43:32;;;;;;;3.50;1.80;;;18.00;99.90;;;;;;4859668;29;20041;-76
2023/08/28 08:46:04;;;;;;;3.13;1.27;;;17.90;99.90;;;;;;4891725;29;20037;-76
2023/08/28 08:48:34;;;;;;;3.15;1.70;;;18.00;99.90;;;;;;4875363;29;20255;-75
2023/08/28 08:51:07;;;;;;;2.65;1.15;;;18.10;99.90;;;;;;4891016;29;20044;-75
2023/08/28 08:53:41;;;;;;;2.33;1.35;;;18.20;99.90;;;;;;4892294;29;20064;-76
2023/08/28 08:56:09;;;;;;;3.15;1.73;;;18.20;99.90;;;;;;4891437;29;20322;-75
2023/08/28 08:58:35;;;;;;;3.33;1.35;;;18.10;99.90;;;;;;4892247;29;20033;-76
2023/08/28 09:01:02;;;;;;;4.18;1.90;;;18.00;99.90;;;;;;4891298;29;20035;-76
2023/08/28 09:03:29;;;;;;;2.90;1.42;;;17.90;99.90;;;;;;4891239;29;20033;-74
2023/08/28 09:05:55;;;;;;;3.80;1.40;;;17.90;99.90;;;;;;4887411;29;20256;-74
2023/08/28 09:08:23;;;;;;;3.50;1.30;;;17.80;99.90;;;;;;4872284;29;20215;-77
2023/08/28 09:10:49;;;;;;;3.85;1.60;;;17.90;99.90;;;;;;4871226;29;20329;-76
2023/08/28 09:13:15;;;;;;;5.18;1.48;;;18.00;99.90;;;;;;4867893;29;20045;-76
2023/08/28 09:15:41;;;;;;;2.20;1.08;;;18.10;99.90;;;;;;4853864;29;20071;-76
2023/08/28 09:18:07;;;;;;;4.53;1.48;;;18.20;99.90;;;;;;4867552;29;20033;-75
2023/08/28 09:20:34;;;;;;;2.85;1.55;;;18.30;99.90;;;;;;4884438;29;20102;-74
2023/08/28 09:23:03;;;;;;;5.65;1.55;;;18.30;99.90;;;;;;4871273;29;20323;-76
2023/08/28 09:25:29;;;;;;;2.72;1.15;;;18.40;99.80;;;;;;4872066;29;20147;-78
2023/08/28 09:27:56;;;;;;;2.15;0.95;;;18.30;99.40;;;;;;4870545;29;20037;-78
2023/08/28 09:30:33;;;;;;;4.60;1.50;;;18.30;99.30;;;;;;4868056;29;20218;-77
2023/08/28 09:33:00;;;;;;;2.80;1.02;;;18.30;99.10;;;;;;4863917;29;20037;-75
2023/08/28 09:35:27;;;;;;;20.90;4.10;;;18.30;99.00;;;;;;4868505;29;20030;-74
2023/08/28 09:38:06;;;;;;;5.75;1.20;;;18.40;98.80;;;;;;4870294;29;20037;-78
2023/08/28 09:40:37;;;;;;;28.17;5.65;;;18.50;98.40;;;;;;4853087;29;20050;-75
2023/08/28 09:43:13;;;;;;;7.15;2.30;;;18.60;98.10;;;;;;4851588;29;20042;-76
2023/08/28 09:45:43;;;;;;;2.45;1.00;;;18.80;97.80;;;;;;4852997;29;20223;-76
2023/08/28 09:48:10;;;;;;;3.28;1.50;;;18.90;97.40;;;;;;4837995;29;20041;-74
2023/08/28 09:50:39;;;;;;;3.70;1.40;;;19.10;97.60;;;;;;4855504;29;20056;-76
2023/08/28 09:53:07;;;;;;;3.60;1.60;;;19.10;97.30;;;;;;4854250;29;20052;-75
2023/08/28 09:55:38;;;;;;;2.83;1.10;;;19.20;96.40;;;;;;4838172;29;20029;-75
2023/08/28 09:58:11;;;;;;;2.72;0.77;;;19.30;95.90;;;;;;4851772;29;20034;-75
2023/08/28 10:00:39;;;;;;;1.77;0.85;;;19.50;95.60;;;;;;4852878;29;20327;-76
2023/08/28 10:03:08;;;;;;;;;;;19.70;94.70;;;;;;4853037;29;20022;-75
2023/08/28 10:05:43;;;;;;;4.78;0.88;;;20.10;94.20;;;;;;4869526;29;19907;-77
2023/08/28 10:08:10;;;;;;;2.05;0.70;;;20.40;93.20;;;;;;4851615;29;20204;-76
2023/08/28 10:10:38;;;;;;;2.08;0.70;;;20.70;92.60;;;;;;4867238;29;20026;-74
2023/08/28 10:13:05;;;;;;;1.50;0.60;;;20.80;91.90;;;;;;4869301;29;20057;-76
2023/08/28 10:16:04;;;;;;;3.70;0.82;;;21.00;92.10;;;;;;4870380;29;20033;-76
2023/08/28 10:18:41;;;;;;;3.88;0.80;;;21.20;91.90;;;;;;4862106;29;20056;-77
2023/08/28 10:21:10;;;;;;;3.25;0.80;;;21.60;91.70;;;;;;4890091;29;20048;-77
2023/08/28 10:23:41;;;;;;;2.80;0.90;;;21.80;91.00;;;;;;4862500;29;20036;-74
2023/08/28 10:26:10;;;;;;;3.63;1.23;;;21.60;90.60;;;;;;4894334;29;20040;-76
2023/08/28 10:28:37;;;;;;;1.60;0.60;;;21.60;91.20;;;;;;4895648;29;20132;-77
2023/08/28 10:31:07;;;;;;;1.55;0.55;;;21.70;91.10;;;;;;4875406;29;20361;-73
2023/08/28 10:33:36;;;;;;;3.40;0.70;;;21.70;90.80;;;;;;4889777;29;20036;-76
2023/08/28 10:36:02;;;;;;;;;;;21.50;90.60;;;;;;4890529;29;20032;-76
2023/08/28 10:38:28;;;;;;;2.42;0.82;;;21.50;90.70;;;;;;4881746;29;19987;-77
2023/08/28 10:40:58;;;;;;;3.33;0.90;;;21.50;90.20;;;;;;4870607;29;20054;-77
2023/08/28 10:43:26;;;;;;;3.58;0.57;;;21.60;90.20;;;;;;4854374;29;20034;-76
2023/08/28 10:45:56;;;;;;;2.85;0.63;;;21.80;90.20;;;;;;4869495;29;20037;-77
2023/08/28 10:48:22;;;;;;;3.00;0.50;;;22.20;88.90;;;;;;4870776;29;20037;-74
2023/08/28 10:50:48;;;;;;;1.83;0.65;;;22.40;88.70;;;;;;4869679;29;20283;-74
2023/08/28 10:53:14;;;;;;;2.22;0.63;;;22.80;86.90;;;;;;4870173;29;20041;-75
2023/08/28 10:55:58;;;;;;;2.00;0.60;;;22.80;85.50;;;;;;4870431;29;20043;-76
2023/08/28 10:58:28;;;;;;;1.50;0.65;;;23.00;85.10;;;;;;4870070;29;20052;-77
2023/08/28 11:01:15;;;;;;;4.18;0.57;;;22.90;84.90;;;;;;4868901;29;20248;-76
2023/08/28 11:03:59;;;;;;;1.60;0.60;;;23.00;84.10;;;;;;4869221;29;20223;-76
2023/08/28 11:06:39;;;;;;;4.70;0.60;;;23.10;83.50;;;;;;4870187;29;20037;-76
2023/08/28 11:09:30;;;;;;;3.47;1.00;;;23.00;82.60;;;;;;4868952;29;20219;-77
2023/08/28 11:12:01;;;;;;;2.50;0.50;;;23.00;83.00;;;;;;4869876;29;20124;-78
2023/08/28 11:14:34;;;;;;;2.85;0.40;;;22.90;84.10;;;;;;4870150;29;20037;-76
2023/08/28 11:17:10;;;;;;;1.67;0.77;;;22.70;83.70;;;;;;4869752;29;20101;-74
2023/08/28 11:19:54;;;;;;;2.30;0.55;;;22.40;84.90;;;;;;4879533;29;20055;-76
2023/08/28 11:22:29;;;;;;;1.42;0.50;;;22.30;85.50;;;;;;4888974;29;20040;-75
2023/08/28 11:24:58;;;;;;;1.73;0.50;;;22.20;85.60;;;;;;4888613;29;20067;-78
2023/08/28 11:27:53;;;;;;;2.80;0.75;;;21.90;85.90;;;;;;4889203;29;20138;-78
2023/08/28 11:30:20;;;;;;;1.02;0.40;;;21.80;87.30;;;;;;4855078;29;20049;-78
2023/08/28 11:32:52;;;;;;;2.60;0.57;;;21.60;87.30;;;;;;4888505;29;20033;-77
2023/08/28 11:35:17;;;;;;;1.42;0.68;;;21.50;88.10;;;;;;4869920;29;20040;-76
2023/08/28 11:37:47;;;;;;;1.98;0.75;;;21.40;88.10;;;;;;4888430;29;20263;-76
2023/08/28 11:40:17;;;;;;;1.20;0.60;;;21.30;88.30;;;;;;4888143;29;20045;-75
2023/08/28 11:42:43;;;;;;;1.98;0.68;;;21.20;87.30;;;;;;4888717;29;20037;-76
2023/08/28 11:45:09;;;;;;;1.27;0.52;;;21.10;88.90;;;;;;4887624;29;20326;-77
2023/08/28 11:47:35;;;;;;;2.65;0.68;;;21.10;88.60;;;;;;4871911;29;20032;-75
2023/08/28 11:50:04;;;;;;;3.67;0.95;;;21.10;89.20;;;;;;4887772;29;20025;-75
2023/08/28 11:52:30;;;;;;;2.25;0.70;;;21.30;88.30;;;;;;4888357;29;20037;-75
2023/08/28 11:55:03;;;;;;;2.38;0.50;;;21.30;88.30;;;;;;4879393;29;20246;-75
2023/08/28 11:57:29;;;;;;;1.35;0.47;;;21.20;88.00;;;;;;4853134;29;20033;-76
2023/08/28 11:59:55;;;;;;;1.30;0.52;;;21.20;88.20;;;;;;4853126;29;20090;-76
2023/08/28 12:02:21;;;;;;;2.40;0.50;;;21.10;88.30;;;;;;4853263;29;20302;-76
2023/08/28 12:04:50;;;;;;;5.32;1.38;;;21.10;88.90;;;;;;4869930;29;20033;-76
2023/08/28 12:07:25;;;;;;;1.98;0.80;;;20.90;89.30;;;;;;4882519;29;20037;-77
2023/08/28 12:09:52;;;;;;;2.90;0.85;;;20.80;89.40;;;;;;4869779;29;20234;-76
2023/08/28 12:12:19;;;;;;;2.53;0.55;;;20.50;88.90;;;;;;4856124;29;20291;-78
2023/08/28 12:14:46;;;;;;;2.95;0.75;;;20.50;90.10;;;;;;4873532;29;20036;-76
2023/08/28 12:17:14;;;;;;;2.67;0.68;;;20.50;90.20;;;;;;4872932;29;20033;-77
2023/08/28 12:19:40;;;;;;;2.30;0.80;;;20.40;90.40;;;;;;4882764;29;20085;-76
2023/08/28 12:22:07;;;;;;;2.08;0.70;;;20.20;90.20;;;;;;4891910;29;20048;-77
2023/08/28 12:24:32;;;;;;;2.20;0.60;;;20.10;90.40;;;;;;4875360;29;20084;-76
2023/08/28 12:26:58;;;;;;;4.00;0.88;;;20.00;90.50;;;;;;4890984;29;20047;-76
2023/08/28 12:29:25;;;;;;;2.50;0.77;;;19.90;90.80;;;;;;4891705;29;20047;-76
2023/08/28 12:31:50;;;;;;;3.30;0.80;;;19.70;91.20;;;;;;4891429;29;20033;-75
2023/08/28 12:34:16;;;;;;;1.67;0.63;;;19.70;91.00;;;;;;4874755;29;20104;-77
2023/08/28 12:36:45;;;;;;;4.07;0.80;;;19.60;91.50;;;;;;4874925;29;20024;-76
2023/08/28 12:39:21;;;;;;;3.22;0.75;;;19.50;91.70;;;;;;4890908;29;20037;-78
2023/08/28 12:41:56;;;;;;;4.10;0.85;;;19.60;91.80;;;;;;4875288;29;20259;-76
2023/08/28 12:44:29;;;;;;;1.88;0.60;;;19.60;91.70;;;;;;4891514;29;20040;-75
2023/08/28 12:46:58;;;;;;;1.92;0.60;;;19.60;90.90;;;;;;4891062;29;20037;-75
2023/08/28 12:49:24;;;;;;;2.97;0.70;;;19.60;91.10;;;;;;4891509;29;20092;-75
2023/08/28 12:51:50;;;;;;;1.73;0.70;;;19.50;91.10;;;;;;4891389;29;20226;-76
2023/08/28 12:54:19;;;;;;;1.60;0.68;;;19.60;90.90;;;;;;4891097;29;20041;-76
2023/08/28 12:56:46;;;;;;;1.23;0.70;;;19.70;90.90;;;;;;4891707;29;20038;-76
2023/08/28 12:59:12;;;;;;;2.08;0.60;;;19.70;90.50;;;;;;4890577;29;20260;-75
2023/08/28 13:01:38;;;;;;;1.88;0.60;;;19.70;90.70;;;;;;4890902;29;20051;-75
2023/08/28 13:04:05;;;;;;;2.10;0.90;;;19.80;90.90;;;;;;4890919;29;20096;-77
2023/08/28 13:06:31;;;;;;;2.83;0.60;;;20.00;90.70;;;;;;4890680;29;20318;-76
2023/08/28 13:08:57;;;;;;;2.92;0.70;;;19.90;90.70;;;;;;4887921;29;20082;-75
2023/08/28 13:11:23;;;;;;;2.35;0.70;;;19.90;90.30;;;;;;4890388;29;20116;-76
2023/08/28 13:13:48;;;;;;;3.00;0.80;;;19.90;90.30;;;;;;4874272;29;20306;-77
2023/08/28 13:16:20;;;;;;;2.17;0.90;;;19.80;90.60;;;;;;4890465;29;20120;-75
2023/08/28 13:18:46;;;;;;;2.22;0.63;;;19.60;90.80;;;;;;4890774;29;20044;-76
2023/08/28 13:21:15;;;;;;;3.85;0.80;;;19.50;91.00;;;;;;4885967;29;20228;-75
2023/08/28 13:23:41;;;;;;;1.77;0.70;;;19.40;91.30;;;;;;4872124;29;20029;-77
2023/08/28 13:26:07;;;;;;;2.88;0.75;;;19.30;91.50;;;;;;4871681;29;20037;-77
2023/08/28 13:28:32;;;;;;;1.88;0.65;;;19.30;92.00;;;;;;4872179;29;20068;-78
2023/08/28 13:30:58;;;;;;;2.00;0.77;;;19.30;91.90;;;;;;4871145;29;20062;-77
2023/08/28 13:33:25;;;;;;;2.38;1.02;;;19.30;92.00;;;;;;4870571;29;20070;-75
2023/08/28 13:35:54;;;;;;;1.45;0.65;;;19.30;91.80;;;;;;4878594;29;20021;-75
2023/08/28 13:38:21;;;;;;;3.50;0.75;;;19.30;91.70;;;;;;4859079;29;20088;-76
2023/08/28 13:40:47;;;;;;;2.67;0.80;;;19.20;91.40;;;;;;4872183;29;20049;-77
2023/08/28 13:43:13;;;;;;;1.55;0.50;;;19.30;91.50;;;;;;4871207;29;20115;-77
2023/08/28 13:45:39;;;;;;;1.70;0.80;;;19.20;91.10;;;;;;4871851;29;20059;-77
2023/08/28 13:48:05;;;;;;;2.88;0.90;;;19.30;90.80;;;;;;4854754;29;20142;-76
2023/08/28 13:50:30;;;;;;;1.10;0.50;;;19.30;90.90;;;;;;4871740;29;20369;-76
2023/08/28 13:52:56;;;;;;;1.15;0.40;;;19.40;90.60;;;;;;4871241;29;20315;-77
2023/08/28 13:55:22;;;;;;;3.67;0.50;;;19.50;90.50;;;;;;4871855;29;20045;-76
2023/08/28 13:57:48;;;;;;;3.47;0.40;;;19.50;90.50;;;;;;4871813;29;20038;-74
2023/08/28 14:00:14;;;;;;;2.50;0.52;;;19.60;90.10;;;;;;4871095;29;20017;-75
2023/08/28 14:02:42;;;;;;;1.10;0.40;;;19.50;90.40;;;;;;4871419;29;20041;-77
2023/08/28 14:05:12;;;;;;;0.98;0.30;;;19.50;90.10;;;;;;4854489;29;20232;-76
2023/08/28 14:07:42;;;;;;;1.60;0.30;;;19.30;90.20;;;;;;4870934;29;20109;-76
2023/08/28 14:10:11;;;;;;;2.45;0.73;;;19.30;90.50;;;;;;4872609;29;20033;-77
2023/08/28 14:12:38;;;;;;;1.35;0.40;;;19.20;90.00;;;;;;4889716;29;20105;-78
2023/08/28 14:15:04;;;;;;;1.13;0.50;;;19.10;90.10;;;;;;4884480;29;20139;-77
2023/08/28 14:17:30;;;;;;;2.55;0.60;;;19.10;90.50;;;;;;4857048;29;20032;-77
2023/08/28 14:19:57;;;;;;;2.90;0.50;;;19.10;90.30;;;;;;4853087;29;20063;-76
2023/08/28 14:22:23;;;;;;;1.48;0.50;;;19.00;90.60;;;;;;4877246;29;20044;-77
2023/08/28 14:24:49;;;;;;;2.85;0.50;;;18.90;90.50;;;;;;4895904;29;20025;-73
2023/08/28 14:27:14;;;;;;;2.92;0.55;;;18.80;90.70;;;;;;4902762;29;20160;-75
2023/08/28 14:29:40;;;;;;;2.15;0.55;;;18.80;90.60;;;;;;4890890;29;20043;-76
2023/08/28 14:32:07;;;;;;;0.95;0.30;;;18.90;90.60;;;;;;4871959;29;20072;-76
2023/08/28 14:34:33;;;;;;;1.20;0.40;;;18.90;90.50;;;;;;4872968;29;20239;-77
2023/08/28 14:36:59;;;;;;;1.60;0.50;;;18.90;90.50;;;;;;4888948;29;20020;-75
2023/08/28 14:39:24;;;;;;;2.65;0.60;;;18.90;90.90;;;;;;4889566;29;20037;-75
2023/08/28 14:41:50;;;;;;;1.63;0.57;;;18.90;90.90;;;;;;4889651;29;20053;-77
2023/08/28 14:44:16;;;;;;;1.80;0.30;;;19.00;90.30;;;;;;4888885;29;20044;-75
2023/08/28 14:46:41;;;;;;;1.40;0.50;;;19.10;90.20;;;;;;4889106;29;20062;-77
2023/08/28 14:49:07;;;;;;;1.23;0.35;;;19.00;89.90;;;;;;4888552;29;20354;-76
2023/08/28 14:51:34;;;;;;;2.08;0.47;;;19.00;89.60;;;;;;4872577;29;20033;-75
2023/08/28 14:54:02;;;;;;;1.10;0.40;;;18.80;90.10;;;;;;4888777;29;20048;-76
2023/08/28 14:56:28;;;;;;;2.67;0.88;;;18.80;90.40;;;;;;4889238;29;20048;-75
2023/08/28 14:58:54;;;;;;;1.58;0.60;;;18.80;90.60;;;;;;4889422;29;20060;-77
2023/08/28 15:01:20;;;;;;;1.13;0.47;;;18.80;90.80;;;;;;4889191;29;20064;-76
2023/08/28 15:03:47;;;;;;;2.33;1.10;;;18.70;90.70;;;;;;4888707;29;20025;-77
2023/08/28 15:06:16;;;;;;;0.85;0.40;;;18.70;90.90;;;;;;4883314;29;20044;-77
2023/08/28 15:08:42;;;;;;;1.67;0.63;;;18.60;90.80;;;;;;4870492;29;20033;-76
2023/08/28 15:11:09;;;;;;;2.47;0.70;;;18.60;90.90;;;;;;4869554;29;20037;-75
2023/08/28 15:13:34;;;;;;;1.20;0.30;;;18.60;90.80;;;;;;4870575;29;20299;-75
2023/08/28 15:16:03;;;;;;;2.60;0.47;;;18.50;90.90;;;;;;4869673;29;20033;-76
2023/08/28 15:18:29;;;;;;;2.70;0.70;;;18.50;91.00;;;;;;4870450;29;20044;-75
2023/08/28 15:20:55;;;;;;;2.13;0.55;;;18.40;91.30;;;;;;4888914;29;20033;-76
2023/08/28 15:23:24;;;;;;;1.15;0.50;;;18.40;91.30;;;;;;4888985;29;20033;-77
2023/08/28 15:25:50;;;;;;;3.08;0.40;;;18.30;91.20;;;;;;4857017;29;20029;-76
2023/08/28 15:28:15;;;;;;;0.98;0.40;;;18.30;91.30;;;;;;4888688;29;20311;-77
2023/08/28 15:30:41;;;;;;;1.95;0.60;;;18.20;91.30;;;;;;4872101;29;20108;-77
2023/08/28 15:33:07;;;;;;;1.95;0.43;;;18.20;91.60;;;;;;4888021;29;20040;-76
2023/08/28 15:35:33;;;;;;;2.40;0.50;;;18.10;91.40;;;;;;4888775;29;20031;-78
2023/08/28 15:37:59;;;;;;;2.00;0.50;;;18.10;91.30;;;;;;4888418;29;20100;-75
2023/08/28 15:40:26;;;;;;;2.03;0.40;;;18.10;91.40;;;;;;4888596;29;20065;-78
2023/08/28 15:42:52;;;;;;;1.80;0.40;;;18.00;91.30;;;;;;4889053;29;20049;-76
2023/08/28 15:45:18;;;;;;;1.17;0.60;;;17.90;91.60;;;;;;4891431;29;20064;-75
2023/08/28 15:47:46;;;;;;;3.83;0.45;;;17.90;91.40;;;;;;4892233;29;20056;-76
2023/08/28 15:50:12;;;;;;;1.98;0.50;;;18.00;91.30;;;;;;4875351;29;20048;-76
2023/08/28 15:52:38;;;;;;;3.30;0.60;;;17.90;91.10;;;;;;4875817;29;20037;-76
2023/08/28 15:55:05;;;;;;;1.52;0.50;;;17.90;91.30;;;;;;4891268;29;20063;-76
2023/08/28 15:57:30;;;;;;;2.20;0.40;;;17.90;91.30;;;;;;4892271;29;20077;-74
2023/08/28 15:59:56;;;;;;;1.92;0.50;;;17.80;91.40;;;;;;4892245;29;20037;-76
2023/08/28 16:02:22;;;;;;;4.78;0.77;;;17.80;91.60;;;;;;4891975;29;20223;-76
2023/08/28 16:04:47;;;;;;;1.00;0.40;;;17.80;91.60;;;;;;4892305;29;20029;-75
2023/08/28 16:07:13;;;;;;;1.40;0.45;;;17.80;91.70;;;;;;4861740;29;20041;-76
2023/08/28 16:09:39;;;;;;;1.98;0.70;;;17.80;91.80;;;;;;4873451;29;20086;-77
2023/08/28 16:12:06;;;;;;;2.70;0.60;;;17.80;92.10;;;;;;4871411;29;20085;-76
2023/08/28 16:14:31;;;;;;;1.40;0.60;;;17.80;92.20;;;;;;4872462;29;20117;-75
2023/08/28 16:16:57;;;;;;;2.08;0.60;;;17.80;92.30;;;;;;4856526;29;20311;-77
2023/08/28 16:19:23;;;;;;;1.38;0.50;;;17.80;92.30;;;;;;4880106;29;20206;-76
2023/08/28 16:21:50;;;;;;;2.38;0.60;;;17.80;92.20;;;;;;4891481;29;20245;-76
2023/08/28 16:24:16;;;;;;;2.92;0.60;;;17.80;91.90;;;;;;4891007;29;20043;-78
2023/08/28 16:26:42;;;;;;;2.97;0.70;;;17.80;91.80;;;;;;4891463;29;20226;-77
2023/08/28 16:29:11;;;;;;;2.75;0.50;;;17.80;92.00;;;;;;4890814;29;20025;-75
2023/08/28 16:31:36;;;;;;;;;;;17.70;92.20;;;;;;4891848;29;20037;-76
2023/08/28 16:34:02;;;;;;;2.08;0.70;;;17.70;92.10;;;;;;4881624;29;20189;-76
2023/08/28 16:36:28;;;;;;;1.77;0.70;;;17.60;92.00;;;;;;4891575;29;20032;-78
2023/08/28 16:38:54;;;;;;;3.80;0.93;;;17.60;91.90;;;;;;4875282;29;20307;-77
2023/08/28 16:41:19;;;;;;;2.55;0.68;;;17.50;92.00;;;;;;4874237;29;20037;-78
2023/08/28 16:43:45;;;;;;;1.38;0.60;;;17.40;92.10;;;;;;4891441;29;20069;-77
2023/08/28 16:46:11;;;;;;;1.00;0.40;;;17.40;91.90;;;;;;4874515;29;20104;-77
2023/08/28 16:48:37;;;;;;;1.90;0.75;;;17.30;91.80;;;;;;4874975;29;20063;-74
2023/08/28 16:51:07;;;;;;;2.25;0.55;;;17.30;92.00;;;;;;4890493;29;20040;-77
2023/08/28 16:53:33;;;;;;;1.13;0.50;;;17.30;91.90;;;;;;4875114;29;20064;-75
2023/08/28 16:55:59;;;;;;;1.42;0.60;;;17.20;91.90;;;;;;4890027;29;20037;-73
2023/08/28 16:58:24;;;;;;;1.63;0.50;;;17.20;92.00;;;;;;4891288;29;20113;-73
2023/08/28 17:00:50;;;;;;;2.78;0.60;;;17.20;92.00;;;;;;4890877;29;20037;-73
2023/08/28 17:03:17;;;;;;;2.50;0.57;;;17.20;92.20;;;;;;4890915;29;20048;-75
2023/08/28 17:05:43;;;;;;;2.83;0.65;;;17.10;92.20;;;;;;4889512;29;20040;-73
2023/08/28 17:08:09;;;;;;;2.30;0.80;;;17.10;92.40;;;;;;4872060;29;20047;-75
2023/08/28 17:10:35;;;;;;;1.20;0.60;;;17.10;92.60;;;;;;4855622;29;20033;-76
2023/08/28 17:13:02;;;;;;;2.55;0.75;;;17.10;92.40;;;;;;4871467;29;20073;-76
2023/08/28 17:15:28;;;;;;;1.98;0.60;;;17.10;92.50;;;;;;4872150;29;20339;-77
2023/08/28 17:17:54;;;;;;;1.60;0.60;;;17.10;92.60;;;;;;4872547;29;20307;-76
2023/08/28 17:20:20;;;;;;;1.58;0.68;;;17.20;92.40;;;;;;4886304;29;20100;-75
2023/08/28 17:22:45;;;;;;;2.30;0.65;;;17.10;92.50;;;;;;4890430;29;20096;-74
2023/08/28 17:25:11;;;;;;;1.77;0.77;;;17.10;92.80;;;;;;4890120;29;20033;-77
2023/08/28 17:27:37;;;;;;;2.50;1.00;;;17.10;93.00;;;;;;4874635;29;20040;-77
2023/08/28 17:30:04;;;;;;;1.88;0.70;;;17.10;94.30;;;;;;4890619;29;20052;-77
2023/08/28 17:32:30;;;;;;;2.78;0.80;;;17.10;93.60;;;;;;4890379;29;20104;-78
2023/08/28 17:34:56;;;;;;;1.90;0.60;;;17.00;93.90;;;;;;4873992;29;20052;-75
2023/08/28 17:37:22;;;;;;;2.70;0.90;;;17.00;93.80;;;;;;4874055;29;20029;-75
2023/08/28 17:39:47;;;;;;;1.80;0.70;;;16.90;94.00;;;;;;4890833;29;20088;-77
2023/08/28 17:42:13;;;;;;;2.40;1.10;;;16.80;94.10;;;;;;4890430;29;20049;-77
2023/08/28 17:44:39;;;;;;;1.65;0.77;;;16.80;94.20;;;;;;4890487;29;20045;-78
2023/08/28 17:47:10;;;;;;;3.38;0.60;;;16.70;94.50;;;;;;4857809;29;20052;-76
2023/08/28 17:49:36;;;;;;;2.72;0.82;;;16.70;94.50;;;;;;4890329;29;20037;-78
2023/08/28 17:52:02;;;;;;;2.35;0.90;;;16.60;94.40;;;;;;4889690;29;20052;-76
2023/08/28 17:54:28;;;;;;;3.75;1.13;;;16.60;94.50;;;;;;4890372;29;20042;-76
2023/08/28 17:56:53;;;;;;;1.70;0.70;;;16.50;94.70;;;;;;4890503;29;20060;-75
2023/08/28 17:59:19;;;;;;;2.70;0.80;;;16.40;94.90;;;;;;4889617;29;20032;-76
2023/08/28 18:01:45;;;;;;;2.17;0.82;;;16.40;94.80;;;;;;4890380;29;20047;-76
2023/08/28 18:04:11;;;;;;;2.05;0.77;;;16.40;94.70;;;;;;4889731;29;20085;-76
2023/08/28 18:06:37;;;;;;;3.00;0.90;;;16.40;94.90;;;;;;4873646;29;20192;-76
2023/08/28 18:09:05;;;;;;;2.85;0.80;;;16.30;94.80;;;;;;4873058;29;20275;-77
2023/08/28 18:11:31;;;;;;;2.65;0.95;;;16.30;94.90;;;;;;4889661;29;20073;-77
2023/08/28 18:13:57;;;;;;;2.10;0.70;;;16.30;95.50;;;;;;4889822;29;20060;-75
2023/08/28 18:16:23;;;;;;;2.70;0.80;;;16.20;95.60;;;;;;4889378;29;20080;-77
2023/08/28 18:18:50;;;;;;;1.90;0.70;;;16.20;95.90;;;;;;4889827;29;20021;-76
2023/08/28 18:21:17;;;;;;;3.58;0.80;;;16.20;95.90;;;;;;4889313;29;20055;-76
2023/08/28 18:23:43;;;;;;;2.17;0.73;;;16.20;96.40;;;;;;4889760;29;20036;-76
2023/08/28 18:26:11;;;;;;;2.17;0.70;;;16.10;96.10;;;;;;4889275;29;20060;-76
2023/08/28 18:29:07;;;;;;;;;;;16.10;95.80;;;;;;4889800;29;20096;-76
2023/08/28 18:32:25;;;;;;;2.78;0.75;;;16.10;96.30;;;;;;4889643;29;19911;-75
2023/08/28 18:35:26;;;;;;;;;;;16.10;96.70;;;;;;4855226;29;20077;-76
2023/08/28 18:37:52;;;;;;;1.85;0.98;;;16.00;96.40;;;;;;4858652;29;19926;-75
2023/08/28 18:40:28;;;;;;;1.95;0.85;;;16.00;96.80;;;;;;4857101;29;20108;-77
2023/08/28 18:42:54;;;;;;;2.38;0.98;;;16.00;96.90;;;;;;4889601;29;20028;-78
2023/08/28 18:45:23;;;;;;;2.00;0.95;;;16.00;97.20;;;;;;4872655;29;20093;-76
2023/08/28 18:48:15;;;;;;;2.65;1.08;;;16.00;97.60;;;;;;4888582;29;20029;-75
2023/08/28 18:50:48;;;;;;;2.22;0.80;;;16.00;97.60;;;;;;4873049;29;20264;-75
2023/08/28 18:53:20;;;;;;;3.28;1.33;;;15.90;97.30;;;;;;4888435;29;20021;-75
2023/08/28 18:55:57;;;;;;;1.80;0.93;;;15.90;97.50;;;;;;4889286;29;20029;-75
2023/08/28 18:58:26;;;;;;;2.60;0.98;;;15.80;97.90;;;;;;4856744;29;20215;-76
2023/08/28 19:01:45;;;;;;;2.33;0.85;;;15.80;98.50;;;;;;4872978;29;20045;-75
2023/08/28 19:05:28;;;;;;;2.78;1.10;;;15.90;98.10;;;;;;4876172;29;20100;-75
2023/08/28 19:19:39;;;;;;;;;;;;;;;;;;;;;
2023/08/28 19:23:24;;;;;;;3.92;1.58;;;15.70;99.70;;;;;;4742031;30;20059;-75
2023/08/28 19:27:05;;;;;;;4.43;1.33;;;15.60;99.90;;;;;;4742011;30;20077;-75
2023/08/28 19:34:01;;;;;;;4.05;1.77;;;15.50;99.90;;;;;;4759745;30;20101;-74
2023/08/28 19:37:26;;;;;;;2.10;1.25;;;15.50;99.90;;;;;;4752086;30;20050;-75
2023/08/28 19:48:31;;;;;;;;;;;;;;;;;;;;;
2023/08/28 20:24:09;;;;;;;5.35;2.80;;;15.30;99.90;;;;;;4803126;29;20037;-75
2023/08/28 20:27:08;;;;;;;4.28;3.30;;;15.30;99.90;;;;;;4831466;29;20038;-74
2023/08/28 20:29:57;;;;;;;4.15;2.70;;;15.30;99.90;;;;;;4806132;29;20046;-74
2023/08/28 20:36:45;;;;;;;4.45;2.60;;;15.30;99.90;;;;;;4852865;29;20020;-75
2023/08/28 20:39:24;;;;;;;3.63;2.10;;;15.30;99.90;;;;;;4838817;29;20446;-74
2023/08/28 20:46:20;;;;;;;4.53;2.17;;;15.20;99.90;;;;;;4891255;29;20033;-76